sensor_id;sensor_type;location;lat;lon;timestamp;P1;durP1;ratioP1;P2;durP2;ratioP2
20022;SDS011;10172;42.054;24.546;2023-03-31T00:00:42;6.15;;;2.20;;
20022;SDS011;10172;42.054;24.546;2023-03-31T00:03:07;2.95;;;1.65;;
20022;SDS011;10172;42.054;24.546;2023-03-31T00:05:46;5.93;;;2.72;;
20022;SDS011;10172;42.054;24.546;2023-03-31T00:08:12;7.53;;;3.92;;
20022;SDS011;10172;42.054;24.546;2023-03-31T00:10:42;6.03;;;2.97;;
20022;SDS011;10172;42.054;24.546;2023-03-31T00:13:09;4.18;;;2.53;;
20022;SDS011;10172;42.054;24.546;2023-03-31T00:15:35;3.90;;;1.92;;
20022;SDS011;10172;42.054;24.546;2023-03-31T00:18:01;4.07;;;2.28;;
20022;SDS011;10172;42.054;24.546;2023-03-31T00:20:27;3.72;;;2.05;;
20022;SDS011;10172;42.054;24.546;2023-03-31T00:22:52;2.88;;;2.10;;
20022;SDS011;10172;42.054;24.546;2023-03-31T00:25:18;3.30;;;1.80;;
20022;SDS011;10172;42.054;24.546;2023-03-31T00:27:44;4.63;;;2.17;;
20022;SDS011;10172;42.054;24.546;2023-03-31T00:30:11;2.97;;;1.50;;
20022;SDS011;10172;42.054;24.546;2023-03-31T00:32:38;3.05;;;1.58;;
20022;SDS011;10172;42.054;24.546;2023-03-31T00:35:04;2.85;;;1.80;;
20022;SDS011;10172;42.054;24.546;2023-03-31T00:37:29;3.45;;;1.85;;
20022;SDS011;10172;42.054;24.546;2023-03-31T00:39:57;4.15;;;2.13;;
20022;SDS011;10172;42.054;24.546;2023-03-31T00:42:23;5.20;;;1.92;;
20022;SDS011;10172;42.054;24.546;2023-03-31T00:50:15;4.03;;;1.80;;
20022;SDS011;10172;42.054;24.546;2023-03-31T00:52:45;3.80;;;1.65;;
20022;SDS011;10172;42.054;24.546;2023-03-31T00:55:15;2.70;;;1.40;;
20022;SDS011;10172;42.054;24.546;2023-03-31T00:57:45;2.63;;;1.52;;
20022;SDS011;10172;42.054;24.546;2023-03-31T01:00:12;1.80;;;1.35;;
20022;SDS011;10172;42.054;24.546;2023-03-31T01:02:43;1.65;;;1.25;;
20022;SDS011;10172;42.054;24.546;2023-03-31T01:05:50;3.25;;;2.15;;
20022;SDS011;10172;42.054;24.546;2023-03-31T01:08:12;2.60;;;1.77;;
20022;SDS011;10172;42.054;24.546;2023-03-31T01:10:48;5.43;;;1.88;;
20022;SDS011;10172;42.054;24.546;2023-03-31T01:13:17;2.17;;;1.58;;
20022;SDS011;10172;42.054;24.546;2023-03-31T01:15:44;3.22;;;1.90;;
20022;SDS011;10172;42.054;24.546;2023-03-31T01:18:10;5.65;;;1.83;;
20022;SDS011;10172;42.054;24.546;2023-03-31T01:47:34;2.42;;;1.77;;
20022;SDS011;10172;42.054;24.546;2023-03-31T01:55:52;2.55;;;1.50;;
20022;SDS011;10172;42.054;24.546;2023-03-31T01:58:33;5.15;;;1.80;;
20022;SDS011;10172;42.054;24.546;2023-03-31T02:03:55;3.90;;;1.77;;
20022;SDS011;10172;42.054;24.546;2023-03-31T02:06:26;3.03;;;1.77;;
20022;SDS011;10172;42.054;24.546;2023-03-31T02:09:03;3.67;;;1.85;;
20022;SDS011;10172;42.054;24.546;2023-03-31T02:11:33;4.63;;;1.90;;
20022;SDS011;10172;42.054;24.546;2023-03-31T02:13:59;3.15;;;2.03;;
20022;SDS011;10172;42.054;24.546;2023-03-31T02:16:29;4.85;;;2.50;;
20022;SDS011;10172;42.054;24.546;2023-03-31T02:19:00;11.10;;;5.93;;
20022;SDS011;10172;42.054;24.546;2023-03-31T02:21:33;13.82;;;7.78;;
20022;SDS011;10172;42.054;24.546;2023-03-31T02:24:04;8.75;;;5.15;;
20022;SDS011;10172;42.054;24.546;2023-03-31T02:26:34;16.23;;;10.15;;
20022;SDS011;10172;42.054;24.546;2023-03-31T02:29:04;6.45;;;3.03;;
20022;SDS011;10172;42.054;24.546;2023-03-31T02:31:37;4.53;;;3.17;;
20022;SDS011;10172;42.054;24.546;2023-03-31T02:34:12;5.28;;;3.17;;
20022;SDS011;10172;42.054;24.546;2023-03-31T02:36:37;3.30;;;2.30;;
20022;SDS011;10172;42.054;24.546;2023-03-31T02:39:06;3.40;;;1.95;;
20022;SDS011;10172;42.054;24.546;2023-03-31T02:41:35;3.50;;;2.10;;
20022;SDS011;10172;42.054;24.546;2023-03-31T02:44:01;3.90;;;1.77;;
20022;SDS011;10172;42.054;24.546;2023-03-31T02:46:27;2.70;;;1.48;;
20022;SDS011;10172;42.054;24.546;2023-03-31T02:48:54;4.28;;;2.38;;
20022;SDS011;10172;42.054;24.546;2023-03-31T03:05:47;24.05;;;13.50;;
20022;SDS011;10172;42.054;24.546;2023-03-31T03:16:25;3.97;;;2.00;;
20022;SDS011;10172;42.054;24.546;2023-03-31T03:18:57;4.53;;;2.80;;
20022;SDS011;10172;42.054;24.546;2023-03-31T03:21:25;2.92;;;1.83;;
20022;SDS011;10172;42.054;24.546;2023-03-31T03:23:51;3.60;;;1.67;;
20022;SDS011;10172;42.054;24.546;2023-03-31T03:26:17;2.40;;;1.40;;
20022;SDS011;10172;42.054;24.546;2023-03-31T03:28:46;3.63;;;2.05;;
20022;SDS011;10172;42.054;24.546;2023-03-31T03:31:12;2.40;;;1.27;;
20022;SDS011;10172;42.054;24.546;2023-03-31T03:33:37;3.30;;;1.63;;
20022;SDS011;10172;42.054;24.546;2023-03-31T03:36:03;5.00;;;3.65;;
20022;SDS011;10172;42.054;24.546;2023-03-31T03:38:29;6.40;;;2.63;;
20022;SDS011;10172;42.054;24.546;2023-03-31T03:40:55;3.72;;;2.00;;
20022;SDS011;10172;42.054;24.546;2023-03-31T03:43:20;2.67;;;1.70;;
20022;SDS011;10172;42.054;24.546;2023-03-31T03:45:49;5.97;;;3.33;;
20022;SDS011;10172;42.054;24.546;2023-03-31T03:48:15;3.33;;;1.88;;
20022;SDS011;10172;42.054;24.546;2023-03-31T03:50:41;4.40;;;3.35;;
20022;SDS011;10172;42.054;24.546;2023-03-31T03:53:07;7.18;;;3.28;;
20022;SDS011;10172;42.054;24.546;2023-03-31T03:55:32;4.43;;;2.90;;
20022;SDS011;10172;42.054;24.546;2023-03-31T03:57:58;9.43;;;5.82;;
20022;SDS011;10172;42.054;24.546;2023-03-31T04:00:23;4.13;;;2.50;;
20022;SDS011;10172;42.054;24.546;2023-03-31T04:02:49;5.88;;;1.92;;
20022;SDS011;10172;42.054;24.546;2023-03-31T04:05:15;2.55;;;1.60;;
20022;SDS011;10172;42.054;24.546;2023-03-31T04:07:40;3.75;;;2.83;;
20022;SDS011;10172;42.054;24.546;2023-03-31T04:10:06;4.80;;;2.92;;
20022;SDS011;10172;42.054;24.546;2023-03-31T04:12:33;4.03;;;1.60;;
20022;SDS011;10172;42.054;24.546;2023-03-31T04:14:59;4.28;;;1.70;;
20022;SDS011;10172;42.054;24.546;2023-03-31T04:17:25;3.08;;;1.90;;
20022;SDS011;10172;42.054;24.546;2023-03-31T04:20:01;4.75;;;2.00;;
20022;SDS011;10172;42.054;24.546;2023-03-31T04:22:32;5.47;;;2.40;;
20022;SDS011;10172;42.054;24.546;2023-03-31T04:25:04;4.20;;;2.17;;
20022;SDS011;10172;42.054;24.546;2023-03-31T04:27:39;2.97;;;1.77;;
20022;SDS011;10172;42.054;24.546;2023-03-31T04:30:11;9.32;;;6.80;;
20022;SDS011;10172;42.054;24.546;2023-03-31T04:32:37;7.45;;;3.78;;
20022;SDS011;10172;42.054;24.546;2023-03-31T04:35:03;3.50;;;2.15;;
20022;SDS011;10172;42.054;24.546;2023-03-31T04:37:29;2.80;;;1.98;;
20022;SDS011;10172;42.054;24.546;2023-03-31T04:39:59;3.50;;;2.13;;
20022;SDS011;10172;42.054;24.546;2023-03-31T04:42:29;2.28;;;1.50;;
20022;SDS011;10172;42.054;24.546;2023-03-31T04:44:54;3.60;;;1.88;;
20022;SDS011;10172;42.054;24.546;2023-03-31T04:47:20;3.75;;;2.08;;
20022;SDS011;10172;42.054;24.546;2023-03-31T04:49:45;7.47;;;2.15;;
20022;SDS011;10172;42.054;24.546;2023-03-31T04:52:11;5.10;;;2.10;;
20022;SDS011;10172;42.054;24.546;2023-03-31T04:54:36;3.88;;;1.45;;
20022;SDS011;10172;42.054;24.546;2023-03-31T04:57:01;7.00;;;2.03;;
20022;SDS011;10172;42.054;24.546;2023-03-31T04:59:27;5.75;;;1.60;;
20022;SDS011;10172;42.054;24.546;2023-03-31T05:01:52;4.68;;;2.38;;
20022;SDS011;10172;42.054;24.546;2023-03-31T05:04:18;4.53;;;2.30;;
20022;SDS011;10172;42.054;24.546;2023-03-31T05:06:43;3.70;;;2.80;;
20022;SDS011;10172;42.054;24.546;2023-03-31T05:09:09;2.95;;;1.70;;
20022;SDS011;10172;42.054;24.546;2023-03-31T05:11:34;3.45;;;1.70;;
20022;SDS011;10172;42.054;24.546;2023-03-31T05:14:00;3.65;;;1.70;;
20022;SDS011;10172;42.054;24.546;2023-03-31T05:16:26;2.22;;;1.38;;
20022;SDS011;10172;42.054;24.546;2023-03-31T05:18:51;2.92;;;1.83;;
20022;SDS011;10172;42.054;24.546;2023-03-31T05:21:18;3.10;;;1.50;;
20022;SDS011;10172;42.054;24.546;2023-03-31T05:23:46;3.65;;;2.17;;
20022;SDS011;10172;42.054;24.546;2023-03-31T05:26:12;3.58;;;1.80;;
20022;SDS011;10172;42.054;24.546;2023-03-31T05:28:38;5.95;;;3.40;;
20022;SDS011;10172;42.054;24.546;2023-03-31T05:31:04;4.72;;;2.50;;
20022;SDS011;10172;42.054;24.546;2023-03-31T05:33:31;8.68;;;3.38;;
20022;SDS011;10172;42.054;24.546;2023-03-31T05:35:56;6.00;;;3.60;;
20022;SDS011;10172;42.054;24.546;2023-03-31T05:38:24;8.32;;;4.05;;
20022;SDS011;10172;42.054;24.546;2023-03-31T05:40:53;4.22;;;2.25;;
20022;SDS011;10172;42.054;24.546;2023-03-31T05:43:19;2.92;;;2.10;;
20022;SDS011;10172;42.054;24.546;2023-03-31T05:45:45;6.15;;;3.17;;
20022;SDS011;10172;42.054;24.546;2023-03-31T05:48:10;2.90;;;1.80;;
20022;SDS011;10172;42.054;24.546;2023-03-31T05:50:36;4.43;;;2.25;;
20022;SDS011;10172;42.054;24.546;2023-03-31T05:53:01;6.15;;;2.33;;
20022;SDS011;10172;42.054;24.546;2023-03-31T05:55:27;4.18;;;1.83;;
20022;SDS011;10172;42.054;24.546;2023-03-31T05:57:52;2.83;;;1.73;;
20022;SDS011;10172;42.054;24.546;2023-03-31T06:00:18;3.20;;;1.75;;
20022;SDS011;10172;42.054;24.546;2023-03-31T06:02:44;10.95;;;2.90;;
20022;SDS011;10172;42.054;24.546;2023-03-31T06:05:10;11.80;;;3.63;;
20022;SDS011;10172;42.054;24.546;2023-03-31T06:07:36;19.02;;;5.55;;
20022;SDS011;10172;42.054;24.546;2023-03-31T06:10:02;8.23;;;2.97;;
20022;SDS011;10172;42.054;24.546;2023-03-31T06:12:27;4.35;;;2.22;;
20022;SDS011;10172;42.054;24.546;2023-03-31T06:14:53;3.92;;;1.95;;
20022;SDS011;10172;42.054;24.546;2023-03-31T06:17:18;4.53;;;2.10;;
20022;SDS011;10172;42.054;24.546;2023-03-31T06:19:44;4.07;;;2.10;;
20022;SDS011;10172;42.054;24.546;2023-03-31T06:22:09;3.22;;;1.60;;
20022;SDS011;10172;42.054;24.546;2023-03-31T06:24:35;3.58;;;1.55;;
20022;SDS011;10172;42.054;24.546;2023-03-31T06:27:00;5.80;;;2.72;;
20022;SDS011;10172;42.054;24.546;2023-03-31T06:29:27;2.42;;;1.20;;
20022;SDS011;10172;42.054;24.546;2023-03-31T06:31:53;8.27;;;2.42;;
20022;SDS011;10172;42.054;24.546;2023-03-31T06:34:19;1.42;;;1.05;;
20022;SDS011;10172;42.054;24.546;2023-03-31T06:36:45;3.22;;;1.25;;
20022;SDS011;10172;42.054;24.546;2023-03-31T06:39:11;1.55;;;1.00;;
20022;SDS011;10172;42.054;24.546;2023-03-31T06:41:36;2.55;;;1.45;;
20022;SDS011;10172;42.054;24.546;2023-03-31T06:44:03;4.63;;;1.17;;
20022;SDS011;10172;42.054;24.546;2023-03-31T06:46:28;19.27;;;6.60;;
20022;SDS011;10172;42.054;24.546;2023-03-31T06:48:54;11.88;;;4.88;;
20022;SDS011;10172;42.054;24.546;2023-03-31T06:51:20;6.93;;;4.10;;
20022;SDS011;10172;42.054;24.546;2023-03-31T06:53:45;10.98;;;2.90;;
20022;SDS011;10172;42.054;24.546;2023-03-31T06:56:11;3.35;;;1.92;;
20022;SDS011;10172;42.054;24.546;2023-03-31T06:58:36;4.60;;;1.88;;
20022;SDS011;10172;42.054;24.546;2023-03-31T07:01:02;3.15;;;1.75;;
20022;SDS011;10172;42.054;24.546;2023-03-31T07:03:30;2.85;;;1.75;;
20022;SDS011;10172;42.054;24.546;2023-03-31T07:05:56;3.50;;;1.95;;
20022;SDS011;10172;42.054;24.546;2023-03-31T07:08:22;3.13;;;1.63;;
20022;SDS011;10172;42.054;24.546;2023-03-31T07:10:49;3.28;;;1.88;;
20022;SDS011;10172;42.054;24.546;2023-03-31T07:13:19;2.85;;;2.10;;
20022;SDS011;10172;42.054;24.546;2023-03-31T07:15:48;3.83;;;1.60;;
20022;SDS011;10172;42.054;24.546;2023-03-31T07:18:14;2.70;;;1.58;;
20022;SDS011;10172;42.054;24.546;2023-03-31T07:20:41;5.88;;;1.60;;
20022;SDS011;10172;42.054;24.546;2023-03-31T07:23:07;2.80;;;1.38;;
20022;SDS011;10172;42.054;24.546;2023-03-31T07:25:33;2.72;;;1.08;;
20022;SDS011;10172;42.054;24.546;2023-03-31T07:28:00;2.10;;;1.02;;
20022;SDS011;10172;42.054;24.546;2023-03-31T07:30:25;2.25;;;1.00;;
20022;SDS011;10172;42.054;24.546;2023-03-31T07:32:51;1.77;;;1.10;;
20022;SDS011;10172;42.054;24.546;2023-03-31T07:35:18;6.13;;;2.17;;
20022;SDS011;10172;42.054;24.546;2023-03-31T07:37:46;2.95;;;1.75;;
20022;SDS011;10172;42.054;24.546;2023-03-31T07:40:17;5.13;;;1.90;;
20022;SDS011;10172;42.054;24.546;2023-03-31T07:42:48;3.83;;;1.40;;
20022;SDS011;10172;42.054;24.546;2023-03-31T07:45:16;3.65;;;1.67;;
20022;SDS011;10172;42.054;24.546;2023-03-31T07:47:42;3.17;;;1.42;;
20022;SDS011;10172;42.054;24.546;2023-03-31T07:50:10;7.45;;;1.48;;
20022;SDS011;10172;42.054;24.546;2023-03-31T07:52:36;4.45;;;1.77;;
20022;SDS011;10172;42.054;24.546;2023-03-31T07:55:02;3.47;;;1.70;;
20022;SDS011;10172;42.054;24.546;2023-03-31T07:57:28;3.35;;;1.55;;
20022;SDS011;10172;42.054;24.546;2023-03-31T07:59:53;4.15;;;1.75;;
20022;SDS011;10172;42.054;24.546;2023-03-31T08:02:19;6.25;;;2.60;;
20022;SDS011;10172;42.054;24.546;2023-03-31T08:04:45;1.33;;;0.90;;
20022;SDS011;10172;42.054;24.546;2023-03-31T08:07:11;1.00;;;0.90;;
20022;SDS011;10172;42.054;24.546;2023-03-31T08:09:38;3.33;;;1.48;;
20022;SDS011;10172;42.054;24.546;2023-03-31T08:12:04;3.40;;;1.20;;
20022;SDS011;10172;42.054;24.546;2023-03-31T08:14:30;4.10;;;1.50;;
20022;SDS011;10172;42.054;24.546;2023-03-31T08:16:56;3.58;;;1.27;;
20022;SDS011;10172;42.054;24.546;2023-03-31T08:19:24;4.40;;;1.48;;
20022;SDS011;10172;42.054;24.546;2023-03-31T08:21:50;4.47;;;1.10;;
20022;SDS011;10172;42.054;24.546;2023-03-31T08:24:16;1.50;;;0.70;;
20022;SDS011;10172;42.054;24.546;2023-03-31T08:26:42;2.38;;;0.80;;
20022;SDS011;10172;42.054;24.546;2023-03-31T08:29:08;3.22;;;0.93;;
20022;SDS011;10172;42.054;24.546;2023-03-31T08:31:34;2.45;;;0.93;;
20022;SDS011;10172;42.054;24.546;2023-03-31T08:33:59;2.22;;;0.77;;
20022;SDS011;10172;42.054;24.546;2023-03-31T08:36:27;7.00;;;1.83;;
20022;SDS011;10172;42.054;24.546;2023-03-31T08:38:53;2.70;;;1.05;;
20022;SDS011;10172;42.054;24.546;2023-03-31T08:41:41;1.95;;;0.90;;
20022;SDS011;10172;42.054;24.546;2023-03-31T08:44:41;1.30;;;0.70;;
20022;SDS011;10172;42.054;24.546;2023-03-31T08:47:08;2.55;;;0.65;;
20022;SDS011;10172;42.054;24.546;2023-03-31T08:49:41;3.20;;;0.77;;
20022;SDS011;10172;42.054;24.546;2023-03-31T08:52:16;2.60;;;1.00;;
20022;SDS011;10172;42.054;24.546;2023-03-31T08:54:54;2.28;;;0.95;;
20022;SDS011;10172;42.054;24.546;2023-03-31T08:57:27;0.98;;;0.70;;
20022;SDS011;10172;42.054;24.546;2023-03-31T09:00:02;1.92;;;1.00;;
20022;SDS011;10172;42.054;24.546;2023-03-31T09:03:04;2.85;;;1.00;;
20022;SDS011;10172;42.054;24.546;2023-03-31T09:05:56;2.85;;;1.38;;
20022;SDS011;10172;42.054;24.546;2023-03-31T09:08:30;3.35;;;1.30;;
20022;SDS011;10172;42.054;24.546;2023-03-31T09:11:02;2.22;;;0.90;;
20022;SDS011;10172;42.054;24.546;2023-03-31T09:16:51;2.10;;;1.20;;
20022;SDS011;10172;42.054;24.546;2023-03-31T09:19:32;1.83;;;0.98;;
20022;SDS011;10172;42.054;24.546;2023-03-31T09:22:08;1.33;;;0.90;;
20022;SDS011;10172;42.054;24.546;2023-03-31T09:24:50;1.20;;;0.70;;
20022;SDS011;10172;42.054;24.546;2023-03-31T09:27:21;1.95;;;1.10;;
20022;SDS011;10172;42.054;24.546;2023-03-31T09:29:52;1.08;;;0.63;;
20022;SDS011;10172;42.054;24.546;2023-03-31T09:32:24;1.95;;;1.00;;
20022;SDS011;10172;42.054;24.546;2023-03-31T09:34:54;2.13;;;0.93;;
20022;SDS011;10172;42.054;24.546;2023-03-31T09:37:25;2.00;;;0.90;;
20022;SDS011;10172;42.054;24.546;2023-03-31T09:40:01;1.45;;;0.70;;
20022;SDS011;10172;42.054;24.546;2023-03-31T09:42:35;2.13;;;0.85;;
20022;SDS011;10172;42.054;24.546;2023-03-31T09:45:02;2.13;;;1.00;;
20022;SDS011;10172;42.054;24.546;2023-03-31T09:50:06;3.50;;;1.48;;
20022;SDS011;10172;42.054;24.546;2023-03-31T09:52:34;4.57;;;1.90;;
20022;SDS011;10172;42.054;24.546;2023-03-31T09:55:21;3.47;;;2.00;;
20022;SDS011;10172;42.054;24.546;2023-03-31T09:57:50;7.28;;;2.40;;
20022;SDS011;10172;42.054;24.546;2023-03-31T10:00:18;2.55;;;1.92;;
20022;SDS011;10172;42.054;24.546;2023-03-31T10:02:52;4.90;;;2.38;;
20022;SDS011;10172;42.054;24.546;2023-03-31T10:05:29;3.40;;;1.63;;
20022;SDS011;10172;42.054;24.546;2023-03-31T10:10:46;4.30;;;1.58;;
20022;SDS011;10172;42.054;24.546;2023-03-31T10:13:28;1.42;;;1.00;;
20022;SDS011;10172;42.054;24.546;2023-03-31T10:16:05;1.58;;;1.10;;
20022;SDS011;10172;42.054;24.546;2023-03-31T10:18:41;2.75;;;1.50;;
20022;SDS011;10172;42.054;24.546;2023-03-31T10:21:21;2.88;;;1.02;;
20022;SDS011;10172;42.054;24.546;2023-03-31T10:23:50;4.45;;;1.65;;
20022;SDS011;10172;42.054;24.546;2023-03-31T10:26:17;1.33;;;0.75;;
20022;SDS011;10172;42.054;24.546;2023-03-31T10:28:46;3.53;;;1.17;;
20022;SDS011;10172;42.054;24.546;2023-03-31T10:31:17;2.17;;;1.23;;
20022;SDS011;10172;42.054;24.546;2023-03-31T10:33:45;2.28;;;1.40;;
20022;SDS011;10172;42.054;24.546;2023-03-31T10:36:25;1.38;;;1.05;;
20022;SDS011;10172;42.054;24.546;2023-03-31T10:38:53;3.05;;;1.25;;
20022;SDS011;10172;42.054;24.546;2023-03-31T10:41:24;2.95;;;1.20;;
20022;SDS011;10172;42.054;24.546;2023-03-31T10:43:54;3.45;;;1.33;;
20022;SDS011;10172;42.054;24.546;2023-03-31T10:46:23;2.08;;;1.10;;
20022;SDS011;10172;42.054;24.546;2023-03-31T10:49:19;1.95;;;1.15;;
20022;SDS011;10172;42.054;24.546;2023-03-31T10:51:56;3.55;;;1.52;;
20022;SDS011;10172;42.054;24.546;2023-03-31T10:54:23;3.47;;;1.60;;
20022;SDS011;10172;42.054;24.546;2023-03-31T10:56:53;2.67;;;1.45;;
20022;SDS011;10172;42.054;24.546;2023-03-31T11:04:59;4.60;;;1.92;;
20022;SDS011;10172;42.054;24.546;2023-03-31T11:15:54;3.30;;;1.85;;
20022;SDS011;10172;42.054;24.546;2023-03-31T11:18:38;3.65;;;1.77;;
20022;SDS011;10172;42.054;24.546;2023-03-31T11:21:14;5.95;;;2.08;;
20022;SDS011;10172;42.054;24.546;2023-03-31T11:27:03;7.20;;;1.60;;
20022;SDS011;10172;42.054;24.546;2023-03-31T11:32:47;4.28;;;2.15;;
20022;SDS011;10172;42.054;24.546;2023-03-31T11:43:49;4.13;;;2.20;;
20022;SDS011;10172;42.054;24.546;2023-03-31T11:48:59;4.03;;;2.08;;
20022;SDS011;10172;42.054;24.546;2023-03-31T11:51:29;3.80;;;2.00;;
20022;SDS011;10172;42.054;24.546;2023-03-31T11:53:58;3.75;;;2.03;;
20022;SDS011;10172;42.054;24.546;2023-03-31T11:56:33;3.35;;;1.20;;
20022;SDS011;10172;42.054;24.546;2023-03-31T11:59:01;3.17;;;1.80;;
20022;SDS011;10172;42.054;24.546;2023-03-31T12:04:24;2.65;;;1.70;;
20022;SDS011;10172;42.054;24.546;2023-03-31T12:06:51;2.33;;;1.98;;
20022;SDS011;10172;42.054;24.546;2023-03-31T12:12:14;2.95;;;1.63;;
20022;SDS011;10172;42.054;24.546;2023-03-31T12:14:49;3.92;;;1.50;;
20022;SDS011;10172;42.054;24.546;2023-03-31T12:17:25;6.20;;;1.88;;
20022;SDS011;10172;42.054;24.546;2023-03-31T12:19:59;3.20;;;1.70;;
20022;SDS011;10172;42.054;24.546;2023-03-31T12:22:38;2.95;;;1.60;;
20022;SDS011;10172;42.054;24.546;2023-03-31T12:25:11;3.60;;;1.42;;
20022;SDS011;10172;42.054;24.546;2023-03-31T12:27:39;3.67;;;1.70;;
20022;SDS011;10172;42.054;24.546;2023-03-31T12:30:19;3.03;;;1.13;;
20022;SDS011;10172;42.054;24.546;2023-03-31T12:41:44;3.70;;;1.90;;
20022;SDS011;10172;42.054;24.546;2023-03-31T12:47:15;2.92;;;1.50;;
20022;SDS011;10172;42.054;24.546;2023-03-31T12:55:32;4.22;;;1.77;;
20022;SDS011;10172;42.054;24.546;2023-03-31T13:03:35;2.80;;;1.10;;
20022;SDS011;10172;42.054;24.546;2023-03-31T13:06:07;3.08;;;1.10;;
20022;SDS011;10172;42.054;24.546;2023-03-31T13:11:36;1.30;;;0.93;;
20022;SDS011;10172;42.054;24.546;2023-03-31T13:14:12;2.22;;;1.00;;
20022;SDS011;10172;42.054;24.546;2023-03-31T13:16:49;4.47;;;1.45;;
20022;SDS011;10172;42.054;24.546;2023-03-31T13:19:38;3.10;;;1.25;;
20022;SDS011;10172;42.054;24.546;2023-03-31T13:22:06;3.60;;;1.25;;
20022;SDS011;10172;42.054;24.546;2023-03-31T13:24:32;2.22;;;1.20;;
20022;SDS011;10172;42.054;24.546;2023-03-31T13:27:23;1.73;;;1.08;;
20022;SDS011;10172;42.054;24.546;2023-03-31T13:29:59;4.03;;;1.35;;
20022;SDS011;10172;42.054;24.546;2023-03-31T13:32:25;6.35;;;2.50;;
20022;SDS011;10172;42.054;24.546;2023-03-31T13:35:01;2.70;;;1.85;;
20022;SDS011;10172;42.054;24.546;2023-03-31T13:42:52;4.18;;;1.40;;
20022;SDS011;10172;42.054;24.546;2023-03-31T13:45:30;2.97;;;1.30;;
20022;SDS011;10172;42.054;24.546;2023-03-31T13:48:17;2.55;;;1.55;;
20022;SDS011;10172;42.054;24.546;2023-03-31T13:59:04;1.40;;;1.10;;
20022;SDS011;10172;42.054;24.546;2023-03-31T14:07:27;2.13;;;1.30;;
20022;SDS011;10172;42.054;24.546;2023-03-31T14:09:58;3.53;;;1.30;;
20022;SDS011;10172;42.054;24.546;2023-03-31T14:12:31;4.32;;;1.70;;
20022;SDS011;10172;42.054;24.546;2023-03-31T14:15:02;2.00;;;1.45;;
20022;SDS011;10172;42.054;24.546;2023-03-31T14:17:29;4.82;;;1.73;;
20022;SDS011;10172;42.054;24.546;2023-03-31T14:20:05;1.73;;;1.23;;
20022;SDS011;10172;42.054;24.546;2023-03-31T14:22:54;2.25;;;1.30;;
20022;SDS011;10172;42.054;24.546;2023-03-31T14:25:34;2.35;;;1.10;;
20022;SDS011;10172;42.054;24.546;2023-03-31T14:36:15;2.38;;;1.20;;
20022;SDS011;10172;42.054;24.546;2023-03-31T14:38:46;4.07;;;1.30;;
20022;SDS011;10172;42.054;24.546;2023-03-31T14:41:15;3.72;;;1.60;;
20022;SDS011;10172;42.054;24.546;2023-03-31T14:43:53;4.30;;;1.67;;
20022;SDS011;10172;42.054;24.546;2023-03-31T14:46:21;1.85;;;0.95;;
20022;SDS011;10172;42.054;24.546;2023-03-31T14:48:47;3.00;;;1.50;;
20022;SDS011;10172;42.054;24.546;2023-03-31T14:51:15;3.58;;;0.82;;
20022;SDS011;10172;42.054;24.546;2023-03-31T14:53:58;3.55;;;1.13;;
20022;SDS011;10172;42.054;24.546;2023-03-31T14:56:27;2.35;;;1.30;;
20022;SDS011;10172;42.054;24.546;2023-03-31T14:58:59;4.10;;;1.27;;
20022;SDS011;10172;42.054;24.546;2023-03-31T15:01:27;2.03;;;1.30;;
20022;SDS011;10172;42.054;24.546;2023-03-31T15:04:10;2.92;;;1.40;;
20022;SDS011;10172;42.054;24.546;2023-03-31T15:06:39;5.47;;;1.77;;
20022;SDS011;10172;42.054;24.546;2023-03-31T15:09:06;4.50;;;1.33;;
20022;SDS011;10172;42.054;24.546;2023-03-31T15:11:35;3.85;;;1.30;;
20022;SDS011;10172;42.054;24.546;2023-03-31T15:14:01;4.10;;;1.55;;
20022;SDS011;10172;42.054;24.546;2023-03-31T15:19:19;2.13;;;1.10;;
20022;SDS011;10172;42.054;24.546;2023-03-31T15:24:45;2.05;;;1.25;;
20022;SDS011;10172;42.054;24.546;2023-03-31T15:27:26;1.17;;;0.88;;
20022;SDS011;10172;42.054;24.546;2023-03-31T15:29:59;3.33;;;1.10;;
20022;SDS011;10172;42.054;24.546;2023-03-31T15:32:30;1.80;;;1.08;;
20022;SDS011;10172;42.054;24.546;2023-03-31T15:34:59;6.22;;;1.10;;
20022;SDS011;10172;42.054;24.546;2023-03-31T15:37:29;1.48;;;0.98;;
20022;SDS011;10172;42.054;24.546;2023-03-31T15:40:03;5.07;;;1.10;;
20022;SDS011;10172;42.054;24.546;2023-03-31T15:42:34;2.67;;;1.00;;
20022;SDS011;10172;42.054;24.546;2023-03-31T15:47:54;2.47;;;1.17;;
20022;SDS011;10172;42.054;24.546;2023-03-31T15:50:21;3.20;;;1.85;;
20022;SDS011;10172;42.054;24.546;2023-03-31T15:52:49;4.88;;;2.00;;
20022;SDS011;10172;42.054;24.546;2023-03-31T15:57:47;2.22;;;1.50;;
20022;SDS011;10172;42.054;24.546;2023-03-31T16:02:58;4.65;;;1.40;;
20022;SDS011;10172;42.054;24.546;2023-03-31T16:05:36;1.88;;;1.30;;
20022;SDS011;10172;42.054;24.546;2023-03-31T16:08:15;1.55;;;1.10;;
20022;SDS011;10172;42.054;24.546;2023-03-31T16:10:46;3.42;;;1.58;;
20022;SDS011;10172;42.054;24.546;2023-03-31T16:13:16;2.53;;;1.25;;
20022;SDS011;10172;42.054;24.546;2023-03-31T16:15:47;2.35;;;1.00;;
20022;SDS011;10172;42.054;24.546;2023-03-31T16:18:27;6.75;;;2.03;;
20022;SDS011;10172;42.054;24.546;2023-03-31T16:20:58;6.32;;;3.08;;
20022;SDS011;10172;42.054;24.546;2023-03-31T16:23:28;3.30;;;2.05;;
20022;SDS011;10172;42.054;24.546;2023-03-31T16:25:56;4.80;;;1.65;;
20022;SDS011;10172;42.054;24.546;2023-03-31T16:28:27;3.38;;;1.63;;
20022;SDS011;10172;42.054;24.546;2023-03-31T16:30:56;5.00;;;3.22;;
20022;SDS011;10172;42.054;24.546;2023-03-31T16:33:26;3.55;;;1.80;;
20022;SDS011;10172;42.054;24.546;2023-03-31T16:35:53;5.45;;;2.22;;
20022;SDS011;10172;42.054;24.546;2023-03-31T16:38:23;2.55;;;1.60;;
20022;SDS011;10172;42.054;24.546;2023-03-31T16:40:51;2.20;;;1.38;;
20022;SDS011;10172;42.054;24.546;2023-03-31T16:43:23;1.23;;;1.10;;
20022;SDS011;10172;42.054;24.546;2023-03-31T16:45:58;2.78;;;1.20;;
20022;SDS011;10172;42.054;24.546;2023-03-31T16:48:27;3.63;;;1.40;;
20022;SDS011;10172;42.054;24.546;2023-03-31T16:50:55;2.95;;;1.55;;
20022;SDS011;10172;42.054;24.546;2023-03-31T16:53:23;8.85;;;2.88;;
20022;SDS011;10172;42.054;24.546;2023-03-31T16:55:52;3.03;;;1.55;;
20022;SDS011;10172;42.054;24.546;2023-03-31T16:58:17;36.90;;;26.08;;
20022;SDS011;10172;42.054;24.546;2023-03-31T17:00:43;169.30;;;79.60;;
20022;SDS011;10172;42.054;24.546;2023-03-31T17:03:10;62.47;;;33.85;;
20022;SDS011;10172;42.054;24.546;2023-03-31T17:05:40;57.13;;;35.13;;
20022;SDS011;10172;42.054;24.546;2023-03-31T17:08:07;10.82;;;8.45;;
20022;SDS011;10172;42.054;24.546;2023-03-31T17:10:34;12.63;;;9.27;;
20022;SDS011;10172;42.054;24.546;2023-03-31T17:13:00;2.78;;;1.80;;
20022;SDS011;10172;42.054;24.546;2023-03-31T17:15:25;4.35;;;1.42;;
20022;SDS011;10172;42.054;24.546;2023-03-31T17:17:53;3.05;;;1.65;;
20022;SDS011;10172;42.054;24.546;2023-03-31T17:20:20;4.75;;;1.88;;
20022;SDS011;10172;42.054;24.546;2023-03-31T17:22:46;3.25;;;1.70;;
20022;SDS011;10172;42.054;24.546;2023-03-31T17:25:11;3.20;;;2.03;;
20022;SDS011;10172;42.054;24.546;2023-03-31T17:27:37;3.42;;;2.08;;
20022;SDS011;10172;42.054;24.546;2023-03-31T17:30:03;5.40;;;2.00;;
20022;SDS011;10172;42.054;24.546;2023-03-31T17:32:30;9.65;;;3.20;;
20022;SDS011;10172;42.054;24.546;2023-03-31T17:34:55;5.35;;;2.65;;
20022;SDS011;10172;42.054;24.546;2023-03-31T17:37:21;3.20;;;1.80;;
20022;SDS011;10172;42.054;24.546;2023-03-31T17:39:46;6.10;;;1.90;;
20022;SDS011;10172;42.054;24.546;2023-03-31T17:42:12;4.60;;;2.33;;
20022;SDS011;10172;42.054;24.546;2023-03-31T17:44:38;3.55;;;2.10;;